createdAt,value
2023-01-12T00:01:58.706Z,10.80
2023-01-12T00:04:25.897Z,10.90
2023-01-12T00:06:52.878Z,10.90
2023-01-12T00:09:19.897Z,10.90
2023-01-12T00:11:46.872Z,10.90
2023-01-12T00:14:13.845Z,10.80
2023-01-12T00:16:43.596Z,10.80
2023-01-12T00:19:18.632Z,10.70
2023-01-12T00:21:46.615Z,10.60
2023-01-12T00:24:13.834Z,10.60
2023-01-12T00:26:40.692Z,10.50
2023-01-12T00:29:08.121Z,10.40
2023-01-12T00:31:35.031Z,10.30
2023-01-12T00:34:02.338Z,10.40
2023-01-12T00:36:29.167Z,10.40
2023-01-12T00:38:55.964Z,10.40
2023-01-12T00:41:52.089Z,10.30
2023-01-12T00:44:37.570Z,10.30
2023-01-12T00:47:07.638Z,10.20
2023-01-12T00:49:35.489Z,10.30
2023-01-12T00:52:03.201Z,10.20
2023-01-12T00:54:30.177Z,10.20
2023-01-12T00:56:57.356Z,10.10
2023-01-12T00:59:24.602Z,10.00
2023-01-12T01:01:51.817Z,10.10
2023-01-12T01:04:18.931Z,10.00
2023-01-12T01:06:46.377Z,10.00
2023-01-12T01:09:13.337Z,10.00
2023-01-12T01:11:40.799Z,10.00
2023-01-12T01:14:08.017Z,10.00
2023-01-12T01:16:35.961Z,10.00
2023-01-12T01:19:06.075Z,10.00
2023-01-12T01:21:36.255Z,10.00
2023-01-12T01:24:03.480Z,9.90
2023-01-12T01:26:31.793Z,9.90
2023-01-12T01:28:58.797Z,9.90
2023-01-12T01:31:26.621Z,10.00
2023-01-12T01:33:53.889Z,9.90
2023-01-12T01:36:21.824Z,9.90
2023-01-12T01:38:49.983Z,10.00
2023-01-12T01:41:29.527Z,10.00
2023-01-12T01:44:01.303Z,9.90
2023-01-12T01:46:37.511Z,10.00
2023-01-12T01:49:34.713Z,10.00
2023-01-12T01:52:07.853Z,10.00
2023-01-12T01:54:41.706Z,10.00
2023-01-12T01:57:11.004Z,10.00
2023-01-12T01:59:40.538Z,10.00
2023-01-12T02:02:07.716Z,10.00
2023-01-12T02:04:35.674Z,10.00
2023-01-12T02:07:03.515Z,10.00
2023-01-12T02:09:30.962Z,10.00
2023-01-12T02:12:17.074Z,10.00
2023-01-12T02:15:05.452Z,10.00
2023-01-12T02:17:44.617Z,10.00
2023-01-12T02:20:44.055Z,10.10
2023-01-12T02:23:17.193Z,10.10
2023-01-12T02:26:15.231Z,10.10
2023-01-12T02:29:33.946Z,10.10
2023-01-12T02:32:28.940Z,10.10
2023-01-12T02:35:12.311Z,10.10
2023-01-12T02:37:54.128Z,10.00
2023-01-12T02:40:41.004Z,10.10
2023-01-12T02:43:16.724Z,10.00
2023-01-12T02:45:49.463Z,10.00
2023-01-12T02:48:22.549Z,10.10
2023-01-12T02:51:01.087Z,10.00
2023-01-12T02:53:51.480Z,10.00
2023-01-12T02:56:29.731Z,10.00
2023-01-12T02:59:02.402Z,10.10
2023-01-12T03:01:30.675Z,10.10
2023-01-12T03:04:02.647Z,10.10
2023-01-12T03:06:58.363Z,10.10
2023-01-12T03:09:41.729Z,10.10
2023-01-12T03:12:20.674Z,10.10
2023-01-12T03:14:50.970Z,10.20
2023-01-12T03:17:37.274Z,10.10
2023-01-12T03:20:09.678Z,10.20
2023-01-12T03:22:38.000Z,10.10
2023-01-12T03:25:11.231Z,10.20
2023-01-12T03:27:46.026Z,10.20
2023-01-12T03:30:21.428Z,10.20
2023-01-12T03:32:49.667Z,10.20
2023-01-12T03:35:19.659Z,10.20
2023-01-12T03:37:58.023Z,10.20
2023-01-12T03:40:33.107Z,10.20
2023-01-12T03:43:26.989Z,10.10
2023-01-12T03:46:21.603Z,10.00
2023-01-12T03:48:48.507Z,10.00
2023-01-12T03:51:27.583Z,10.10
2023-01-12T03:53:57.679Z,10.10
2023-01-12T03:56:28.559Z,10.10
2023-01-12T03:58:55.845Z,10.10
2023-01-12T04:01:23.013Z,10.10
2023-01-12T04:03:50.093Z,10.10
2023-01-12T04:06:17.306Z,10.20
2023-01-12T04:08:44.403Z,10.20
2023-01-12T04:14:46.891Z,10.20
2023-01-12T04:17:15.743Z,10.20
2023-01-12T04:19:43.390Z,10.20
2023-01-12T04:22:33.471Z,10.30
2023-01-12T04:25:02.583Z,10.40
2023-01-12T04:27:30.196Z,10.40
2023-01-12T04:29:57.226Z,10.60
2023-01-12T04:32:24.207Z,10.60
2023-01-12T04:34:51.072Z,10.60
2023-01-12T04:37:24.624Z,10.60
2023-01-12T04:39:51.558Z,10.60
2023-01-12T04:42:36.923Z,10.50
2023-01-12T04:45:04.085Z,10.60
2023-01-12T04:47:30.975Z,10.60
2023-01-12T04:49:57.865Z,10.70
2023-01-12T04:52:24.790Z,10.60
2023-01-12T04:54:56.744Z,10.70
2023-01-12T04:57:24.243Z,10.60
2023-01-12T04:59:51.119Z,10.60
2023-01-12T05:02:18.085Z,10.60
2023-01-12T05:04:58.063Z,10.70
2023-01-12T05:07:24.928Z,10.70
2023-01-12T05:10:10.151Z,10.60
2023-01-12T05:12:37.042Z,10.70
2023-01-12T05:15:04.445Z,10.70
2023-01-12T05:17:32.898Z,10.80
2023-01-12T05:20:00.885Z,10.80
2023-01-12T05:22:27.984Z,10.80
2023-01-12T05:24:54.904Z,10.70
2023-01-12T05:27:21.955Z,10.80
2023-01-12T05:29:49.536Z,10.70
2023-01-12T05:32:16.409Z,10.80
2023-01-12T05:34:43.312Z,10.80
2023-01-12T05:37:10.274Z,10.80
2023-01-12T05:39:37.222Z,10.80
2023-01-12T05:42:22.809Z,10.90
2023-01-12T05:44:49.826Z,10.90
2023-01-12T05:47:16.860Z,10.90
2023-01-12T05:49:43.848Z,10.90
2023-01-12T05:52:10.877Z,10.90
2023-01-12T05:54:37.885Z,10.90
2023-01-12T05:57:05.030Z,10.90
2023-01-12T05:59:32.189Z,10.70
2023-01-12T06:01:59.106Z,10.80
2023-01-12T06:04:26.194Z,10.80
2023-01-12T06:06:53.386Z,10.90
2023-01-12T06:09:20.533Z,10.90
2023-01-12T06:12:05.973Z,11.00
2023-01-12T06:14:33.141Z,10.90
2023-01-12T06:16:59.935Z,11.00
2023-01-12T06:19:27.468Z,10.90
2023-01-12T06:21:55.232Z,11.00
2023-01-12T06:24:22.211Z,11.00
2023-01-12T06:26:49.136Z,11.00
2023-01-12T06:29:16.172Z,11.00
2023-01-12T06:31:43.983Z,11.00
2023-01-12T06:34:12.164Z,11.10
2023-01-12T06:36:39.908Z,11.00
2023-01-12T06:39:06.922Z,11.10
2023-01-12T06:41:53.941Z,11.10
2023-01-12T06:44:21.321Z,11.10
2023-01-12T06:46:49.780Z,11.10
2023-01-12T06:49:19.782Z,11.10
2023-01-12T06:51:51.373Z,11.00
2023-01-12T06:54:18.990Z,11.00
2023-01-12T06:56:46.383Z,11.00
2023-01-12T06:59:13.681Z,11.00
2023-01-12T07:01:41.332Z,11.00
2023-01-12T07:04:08.614Z,11.00
2023-01-12T07:06:35.919Z,11.00
2023-01-12T07:09:02.993Z,11.10
2023-01-12T07:11:29.772Z,11.10
2023-01-12T07:13:56.638Z,11.10
2023-01-12T07:16:23.853Z,11.10
2023-01-12T07:18:50.812Z,11.10
2023-01-12T07:21:19.717Z,11.10
2023-01-12T07:23:46.822Z,11.10
2023-01-12T07:26:14.213Z,11.10
2023-01-12T07:28:42.846Z,11.20
2023-01-12T07:31:09.917Z,11.20
2023-01-12T07:33:38.594Z,11.20
2023-01-12T07:36:06.087Z,11.30
2023-01-12T07:38:33.504Z,11.30
2023-01-12T07:41:01.736Z,11.30
2023-01-12T07:43:33.739Z,11.30
2023-01-12T07:46:01.771Z,11.40
2023-01-12T07:48:28.791Z,11.50
2023-01-12T07:50:59.387Z,11.50
2023-01-12T07:53:26.641Z,11.60
2023-01-12T07:55:53.698Z,11.50
2023-01-12T07:58:21.169Z,11.50
2023-01-12T08:00:48.054Z,11.50
2023-01-12T08:03:15.036Z,11.60
2023-01-12T08:05:42.153Z,11.50
2023-01-12T08:08:09.381Z,11.50
2023-01-12T08:10:36.376Z,11.50
2023-01-12T08:13:03.355Z,11.50
2023-01-12T08:15:35.785Z,11.40
2023-01-12T08:18:14.254Z,11.30
2023-01-12T08:20:41.119Z,11.40
2023-01-12T08:23:19.563Z,11.50
2023-01-12T08:25:54.848Z,11.40
2023-01-12T08:28:27.138Z,11.40
2023-01-12T08:30:54.499Z,11.30
2023-01-12T08:33:21.516Z,11.40
2023-01-12T08:35:49.052Z,11.40
2023-01-12T08:38:16.327Z,11.40
2023-01-12T08:41:01.996Z,11.40
2023-01-12T08:43:47.367Z,11.40
2023-01-12T08:46:14.733Z,11.30
2023-01-12T08:48:41.616Z,11.20
2023-01-12T08:51:08.779Z,11.30
2023-01-12T08:53:35.946Z,11.30
2023-01-12T08:56:03.118Z,11.30
2023-01-12T08:58:30.801Z,11.30
2023-01-12T09:00:57.829Z,11.20
2023-01-12T09:03:24.814Z,11.30
2023-01-12T09:05:51.733Z,11.30
2023-01-12T09:08:18.773Z,11.40
2023-01-12T09:10:45.778Z,11.30
2023-01-12T09:13:15.757Z,11.30
2023-01-12T09:15:48.301Z,11.30
2023-01-12T09:18:20.278Z,11.30
2023-01-12T09:20:47.343Z,11.20
2023-01-12T09:23:14.434Z,11.30
2023-01-12T09:25:41.310Z,11.40
2023-01-12T09:28:08.340Z,11.50
2023-01-12T09:30:35.389Z,11.50
2023-01-12T09:33:02.258Z,11.50
2023-01-12T09:35:29.252Z,11.60
2023-01-12T09:37:56.043Z,11.60
2023-01-12T09:40:22.994Z,11.60
2023-01-12T09:43:10.231Z,11.70
2023-01-12T09:45:55.805Z,11.70
2023-01-12T09:48:24.177Z,11.70
2023-01-12T09:51:22.547Z,11.70
2023-01-12T09:53:49.528Z,11.70
2023-01-12T09:56:24.847Z,11.80
2023-01-12T09:59:13.263Z,11.80
2023-01-12T10:01:40.130Z,11.80
2023-01-12T10:04:07.436Z,11.80
2023-01-12T10:06:35.736Z,11.80
2023-01-12T10:09:06.323Z,11.90
2023-01-12T10:12:00.679Z,11.90
2023-01-12T10:14:36.114Z,11.80
2023-01-12T10:17:25.641Z,11.90
2023-01-12T10:20:13.603Z,11.90
2023-01-12T10:22:51.021Z,12.00
2023-01-12T10:25:31.124Z,11.90
2023-01-12T10:28:00.202Z,11.90
2023-01-12T10:30:32.365Z,11.90
2023-01-12T10:33:33.070Z,11.90
2023-01-12T10:36:18.073Z,12.00
2023-01-12T10:39:01.046Z,12.00
2023-01-12T10:41:38.059Z,11.90
2023-01-12T10:44:16.470Z,11.70
2023-01-12T10:46:43.473Z,11.70
2023-01-12T10:49:21.891Z,11.80
2023-01-12T10:51:59.500Z,11.80
2023-01-12T10:54:28.182Z,11.80
2023-01-12T10:56:57.594Z,11.70
2023-01-12T10:59:29.526Z,11.70
2023-01-12T11:02:09.045Z,11.80
2023-01-12T11:04:52.419Z,11.70
2023-01-12T11:07:30.998Z,11.60
2023-01-12T11:10:28.863Z,11.60
2023-01-12T11:13:01.060Z,11.60
2023-01-12T11:15:29.752Z,11.60
2023-01-12T11:18:05.704Z,11.50
2023-01-12T11:20:48.938Z,11.50
2023-01-12T11:23:57.298Z,11.60
2023-01-12T11:26:51.571Z,11.60
2023-01-12T11:29:34.225Z,11.50
2023-01-12T11:32:25.255Z,11.50
2023-01-12T11:35:10.313Z,11.40
2023-01-12T11:37:39.829Z,11.50
2023-01-12T11:40:22.678Z,11.50
2023-01-12T11:43:09.066Z,11.50
2023-01-12T11:45:52.520Z,11.50
2023-01-12T11:48:38.088Z,11.50
2023-01-12T11:51:05.112Z,11.50
2023-01-12T11:53:32.049Z,11.50
2023-01-12T11:56:33.522Z,11.50
2023-01-12T11:59:27.088Z,11.60
2023-01-12T12:02:02.131Z,11.50
2023-01-12T12:05:06.428Z,11.50
2023-01-12T12:07:33.479Z,11.40
2023-01-12T12:10:15.141Z,11.30
2023-01-12T12:13:06.265Z,11.40
2023-01-12T12:15:48.975Z,11.50
2023-01-12T12:18:37.260Z,11.40
2023-01-12T12:21:09.724Z,11.50
2023-01-12T12:24:00.865Z,11.50
2023-01-12T12:26:48.161Z,11.50
2023-01-12T12:29:42.568Z,11.50
2023-01-12T12:32:09.788Z,11.50
2023-01-12T12:35:04.419Z,11.50
2023-01-12T12:37:43.447Z,11.50
2023-01-12T12:40:19.274Z,11.50
2023-01-12T12:43:04.844Z,11.50
2023-01-12T12:45:41.636Z,11.40
2023-01-12T12:48:20.676Z,11.40
2023-01-12T12:51:04.192Z,11.50
2023-01-12T12:53:35.912Z,11.50
2023-01-12T12:56:09.623Z,11.40
2023-01-12T12:58:45.744Z,11.40
2023-01-12T13:01:24.699Z,11.50
2023-01-12T13:03:58.919Z,11.50
2023-01-12T13:06:46.468Z,11.50
2023-01-12T13:09:15.265Z,11.50
2023-01-12T13:12:05.413Z,11.50
2023-01-12T13:14:40.732Z,11.50
2023-01-12T13:17:20.121Z,11.50
2023-01-12T13:19:51.897Z,11.60
2023-01-12T13:22:48.807Z,11.60
2023-01-12T13:25:22.359Z,11.50
2023-01-12T13:27:56.805Z,11.50
2023-01-12T13:30:29.752Z,11.50
2023-01-12T13:33:00.928Z,11.60
2023-01-12T13:35:33.698Z,11.50
2023-01-12T13:38:36.311Z,11.50
2023-01-12T13:41:11.377Z,11.60
2023-01-12T13:43:42.724Z,11.60
2023-01-12T13:46:12.399Z,11.50
2023-01-12T13:48:44.063Z,11.60
2023-01-12T13:51:20.412Z,11.50
2023-01-12T13:54:05.509Z,11.50
2023-01-12T13:56:33.173Z,11.50
2023-01-12T13:59:02.127Z,11.50
2023-01-12T14:01:35.283Z,11.50
2023-01-12T14:04:14.286Z,11.50
2023-01-12T14:06:44.238Z,11.50
2023-01-12T14:09:35.647Z,11.50
2023-01-12T14:12:38.462Z,11.50
2023-01-12T14:15:23.681Z,11.60
2023-01-12T14:17:53.170Z,11.60
2023-01-12T14:20:23.449Z,11.60
2023-01-12T14:23:06.520Z,11.60
2023-01-12T14:25:33.457Z,11.60
2023-01-12T14:28:01.223Z,11.60
2023-01-12T14:30:29.087Z,11.60
2023-01-12T14:32:56.199Z,11.60
2023-01-12T14:35:25.579Z,11.60
2023-01-12T14:37:57.799Z,11.60
2023-01-12T14:40:34.544Z,11.60
2023-01-12T14:43:21.477Z,11.70
2023-01-12T14:46:18.359Z,11.60
2023-01-12T14:49:03.887Z,11.60
2023-01-12T14:51:37.851Z,11.70
2023-01-12T14:54:07.853Z,11.70
2023-01-12T14:56:41.320Z,11.70
2023-01-12T14:59:17.982Z,11.70
2023-01-12T15:01:45.176Z,11.70
2023-01-12T15:04:19.212Z,11.70
2023-01-12T15:06:46.743Z,11.70
2023-01-12T15:09:34.374Z,11.70
2023-01-12T15:12:40.092Z,11.70
2023-01-12T15:15:19.370Z,11.60
2023-01-12T15:18:05.455Z,11.50
2023-01-12T15:21:08.863Z,11.60
2023-01-12T15:23:55.469Z,11.60
2023-01-12T15:26:22.875Z,11.70
2023-01-12T15:28:50.589Z,11.70
2023-01-12T15:31:26.768Z,11.70
2023-01-12T15:33:54.555Z,11.70
2023-01-12T15:36:21.588Z,11.70
2023-01-12T15:38:48.708Z,11.80
2023-01-12T15:41:39.709Z,11.80
2023-01-12T15:44:14.952Z,11.80
2023-01-12T15:46:42.775Z,11.80
2023-01-12T15:49:13.358Z,11.70
2023-01-12T15:51:41.519Z,11.70
2023-01-12T15:54:11.849Z,11.70
2023-01-12T15:56:39.064Z,11.70
2023-01-12T15:59:06.100Z,11.70
2023-01-12T16:01:39.010Z,11.70
2023-01-12T16:04:40.412Z,11.70
2023-01-12T16:06:53.071Z,11.80
2023-01-12T16:09:20.003Z,11.90
2023-01-12T16:11:46.945Z,12.00
2023-01-12T16:14:15.067Z,11.90
2023-01-12T16:16:42.150Z,11.90
2023-01-12T16:19:10.066Z,11.90
2023-01-12T16:21:37.296Z,12.00
2023-01-12T16:24:04.526Z,11.90
2023-01-12T16:26:31.678Z,12.00
2023-01-12T16:28:59.035Z,12.00
2023-01-12T16:31:26.347Z,11.90
2023-01-12T16:33:53.334Z,11.90
2023-01-12T16:36:20.476Z,11.90
2023-01-12T16:38:47.677Z,12.00
2023-01-12T16:41:19.239Z,12.00
2023-01-12T16:43:46.668Z,12.00
2023-01-12T16:46:14.574Z,12.00
2023-01-12T16:48:42.342Z,12.00
2023-01-12T16:51:17.281Z,12.00
2023-01-12T16:53:46.522Z,11.90
2023-01-12T16:56:15.701Z,11.80
2023-01-12T16:58:47.751Z,11.80
2023-01-12T17:01:18.682Z,11.80
2023-01-12T17:03:45.919Z,11.80
2023-01-12T17:06:15.563Z,11.80
2023-01-12T17:08:44.504Z,11.80
2023-01-12T17:11:14.210Z,11.80
2023-01-12T17:13:42.827Z,11.90
2023-01-12T17:16:16.484Z,11.90
2023-01-12T17:18:44.102Z,11.80
2023-01-12T17:21:14.576Z,11.70
2023-01-12T17:23:43.014Z,11.70
2023-01-12T17:26:17.946Z,11.70
2023-01-12T17:28:47.167Z,11.70
2023-01-12T17:31:20.708Z,11.80
2023-01-12T17:33:48.447Z,11.90
2023-01-12T17:36:15.757Z,12.00
2023-01-12T17:38:43.041Z,12.10
2023-01-12T17:41:34.097Z,12.20
2023-01-12T17:44:04.609Z,12.00
2023-01-12T17:46:32.262Z,12.00
2023-01-12T17:49:01.621Z,11.90
2023-01-12T17:51:29.030Z,11.80
2023-01-12T17:53:57.477Z,11.80
2023-01-12T17:56:25.432Z,11.70
2023-01-12T17:58:55.750Z,11.70
2023-01-12T18:01:24.509Z,11.80
2023-01-12T18:03:51.561Z,11.70
2023-01-12T18:06:26.101Z,11.70
2023-01-12T18:08:56.478Z,11.60
2023-01-12T18:11:23.767Z,11.70
2023-01-12T18:13:50.679Z,11.60
2023-01-12T18:16:17.858Z,11.60
2023-01-12T18:18:45.079Z,11.70
2023-01-12T18:21:15.993Z,11.70
2023-01-12T18:23:43.653Z,11.70
2023-01-12T18:26:16.992Z,11.70
2023-01-12T18:28:44.837Z,11.70
2023-01-12T18:31:20.779Z,11.70
2023-01-12T18:33:52.647Z,11.70
2023-01-12T18:36:22.716Z,11.80
2023-01-12T18:38:50.993Z,11.80
2023-01-12T18:41:37.948Z,11.80
2023-01-12T18:44:06.172Z,11.80
2023-01-12T18:46:57.063Z,11.80
2023-01-12T18:49:25.338Z,11.70
2023-01-12T18:52:10.758Z,11.80
2023-01-12T18:54:51.840Z,11.70
2023-01-12T18:57:22.242Z,11.70
2023-01-12T19:00:00.444Z,11.70
2023-01-12T19:02:28.287Z,11.70
2023-01-12T19:05:30.552Z,11.80
2023-01-12T19:07:57.752Z,11.70
2023-01-12T19:10:25.265Z,11.70
2023-01-12T19:13:12.099Z,11.80
2023-01-12T19:15:58.609Z,11.80
2023-01-12T19:18:25.875Z,11.70
2023-01-12T19:21:12.941Z,11.70
2023-01-12T19:23:58.379Z,11.80
2023-01-12T19:26:48.751Z,11.80
2023-01-12T19:29:16.379Z,11.80
2023-01-12T19:32:01.235Z,11.70
2023-01-12T19:34:28.384Z,11.80
2023-01-12T19:36:55.443Z,11.80
2023-01-12T19:39:35.331Z,11.80
2023-01-12T19:42:20.495Z,11.80
2023-01-12T19:44:47.364Z,11.90
2023-01-12T19:47:15.603Z,11.90
2023-01-12T19:49:42.446Z,11.80
2023-01-12T19:52:09.393Z,11.90
2023-01-12T19:54:36.339Z,11.90
2023-01-12T19:57:04.600Z,11.90
2023-01-12T19:59:34.268Z,11.90
2023-01-12T20:02:01.397Z,11.90
2023-01-12T20:04:34.533Z,11.80
2023-01-12T20:07:01.553Z,11.80
2023-01-12T20:09:28.660Z,11.80
2023-01-12T20:11:55.647Z,11.80
2023-01-12T20:14:22.516Z,11.90
2023-01-12T20:16:49.633Z,11.70
2023-01-12T20:19:19.323Z,11.80
2023-01-12T20:21:47.002Z,11.80
2023-01-12T20:24:14.095Z,11.80
2023-01-12T20:26:42.197Z,11.70
2023-01-12T20:29:09.436Z,11.80
2023-01-12T20:31:37.826Z,11.80
2023-01-12T20:34:04.913Z,11.80
2023-01-12T20:36:31.829Z,11.80
2023-01-12T20:38:59.204Z,11.80
2023-01-12T20:41:26.192Z,11.80
2023-01-12T20:43:53.233Z,11.50
2023-01-12T20:46:20.361Z,11.20
2023-01-12T20:48:47.417Z,11.00
2023-01-12T20:51:18.479Z,11.00
2023-01-12T20:53:45.382Z,11.20
2023-01-12T20:56:12.416Z,11.30
2023-01-12T20:58:39.382Z,11.30
2023-01-12T21:01:12.148Z,11.40
2023-01-12T21:03:40.025Z,11.40
2023-01-12T21:06:13.312Z,11.40
2023-01-12T21:08:45.988Z,11.40
2023-01-12T21:11:16.244Z,11.40
2023-01-12T21:13:43.603Z,11.40
2023-01-12T21:16:13.705Z,11.30
2023-01-12T21:18:41.565Z,11.40
2023-01-12T21:21:08.804Z,11.40
2023-01-12T21:23:35.753Z,11.30
2023-01-12T21:26:07.545Z,11.20
2023-01-12T21:28:37.630Z,11.20
2023-01-12T21:31:08.566Z,11.20
2023-01-12T21:33:36.038Z,11.20
2023-01-12T21:36:03.880Z,11.20
2023-01-12T21:38:31.132Z,11.20
2023-01-12T21:41:02.973Z,11.10
2023-01-12T21:43:30.622Z,11.20
2023-01-12T21:46:05.267Z,11.10
2023-01-12T21:48:32.290Z,11.10
2023-01-12T21:51:07.332Z,11.20
2023-01-12T21:53:36.346Z,11.10
2023-01-12T21:56:05.212Z,11.10
2023-01-12T21:58:34.796Z,11.10
2023-01-12T22:01:14.074Z,11.20
2023-01-12T22:03:41.717Z,11.20
2023-01-12T22:06:11.804Z,11.10
2023-01-12T22:08:40.548Z,11.00
2023-01-12T22:11:10.048Z,11.10
2023-01-12T22:13:37.778Z,11.10
2023-01-12T22:16:11.642Z,11.10
2023-01-12T22:18:39.796Z,11.10
2023-01-12T22:21:08.636Z,11.10
2023-01-12T22:23:39.426Z,11.10
2023-01-12T22:26:12.709Z,11.20
2023-01-12T22:28:41.342Z,11.20
2023-01-12T22:31:13.938Z,11.20
2023-01-12T22:33:44.906Z,11.20
2023-01-12T22:36:12.456Z,11.30
2023-01-12T22:38:39.802Z,11.20
2023-01-12T22:41:08.006Z,11.20
2023-01-12T22:43:40.743Z,11.20
2023-01-12T22:46:27.315Z,11.10
2023-01-12T22:48:56.886Z,11.10
2023-01-12T22:51:25.911Z,11.10
2023-01-12T22:53:53.724Z,11.00
2023-01-12T22:56:21.076Z,11.10
2023-01-12T22:58:49.806Z,11.10
2023-01-12T23:01:18.149Z,11.00
2023-01-12T23:03:45.667Z,11.00
2023-01-12T23:06:14.531Z,11.00
2023-01-12T23:08:43.494Z,11.00
2023-01-12T23:11:16.193Z,11.00
2023-01-12T23:13:44.267Z,10.90
2023-01-12T23:16:12.907Z,10.80
2023-01-12T23:18:41.837Z,10.90
2023-01-12T23:21:15.475Z,11.00
2023-01-12T23:23:45.477Z,11.00
2023-01-12T23:26:14.814Z,11.00
2023-01-12T23:28:48.876Z,10.90
2023-01-12T23:31:19.142Z,10.90
2023-01-12T23:33:46.076Z,10.90
2023-01-12T23:36:18.567Z,10.90
2023-01-12T23:38:46.038Z,10.90
2023-01-12T23:41:14.986Z,10.90
2023-01-12T23:43:43.229Z,10.80
2023-01-12T23:46:10.787Z,10.90
2023-01-12T23:48:37.749Z,11.00
2023-01-12T23:51:04.903Z,10.90
2023-01-12T23:53:32.038Z,10.80
2023-01-12T23:56:07.476Z,10.80
2023-01-12T23:58:34.867Z,10.70
